Main page
METAR-TAF:

METAR-TAF

Airports :

Melilla, Spain

Melilla Airport

latitude: 35-17N, longitude: 002-57W, elevation: 47 m

Current weather observation

The report was made 42 minutes ago, at 16:00 UTC
Wind 9 kt from the West, varying between Southwest and North/Northwest
Temperature 29°C
Humidity 37%
Pressure 1013 hPa
Visibility 10 km or more
no clouds below 1500 m and no cumulonimbus

METAR: GEML 221600Z 28009KT 230V330 CAVOK 29/13 Q1013

Time: 18:42 (16:42 UTC)

Forecast

The report was made 2 hours and 42 minutes ago, at 14:00 UTC
Forecast valid from 22 at 15 UTC to 23 at 15 UTC
Wind 8 kt from the North/Northwest
Visibility 10 km or more
no clouds below 1500 m and no cumulonimbus

TAF: GEML 221400Z 2215/2315 33008KT CAVOK TX30/2312Z TN20/2304Z

Weather observations and forecasts of more than 4000 airports (METAR and TAF reports).

The available stations are represented by yellow and red dots on the map.

Hover mouse over dot to see the name of the station.

Then click to see weather observations and forecasts.

To change the map : click on the green buttons with a black cross to zoom in, on the green button with a dash to zoom out, or on the green arrows for adjacent maps.


METAR-TAF: